TAF Text Data
IDs:
Format:
Raw Decoded Include METAR

Data at: 1729 UTC 23 Jan 2019

KELP 231651Z 23005KT 10SM CLR 07/M09 A3027 RMK AO2 SLP234 T00671089

KELP 231720Z 2318/2418 23008KT P6SM SKC
  FM241300 32008KT P6SM SKC